• Join FlightAware (Why Join?)
  • Login
  • US Flag 
01:41AM EDT


 

Airport Tracker/Info


-or-


 

Live Flight TrackerFlight Track Log ✈ RPA4910 ✈ 19-Jul-2013 ✈ KEWR - KBTV

Flight Track Log - Related Links

Times and Time Zones

All times are in EDT time to prevent confusion due to time zone crossing. See the RPA4910 flight status page for this flight to view local times or setup timezone preferences in your user account.

Time Position Orientation Groundspeed Altitude Reporting Facility
EDT Latitude Longitude Course Direction KTS MPH feet Rate Location/Type
11:24PM 40.6500 -74.1833 90° East 194 223 1,800  Level New York TRACON
11:25PM 40.5833 -74.2167 201° Southwest 224 258 3,600 1,260 Climbing New York TRACON
11:26PM 40.9804 -74.1433 North  Level FlightAware Approximate
11:26PM 40.5333 -74.2667 217° Southwest 260 299 4,400  Level New York TRACON
11:27PM 41.0801 -74.1350 North  Level FlightAware Approximate
11:27PM 40.5833 -74.3167 323° Northwest 239 275 5,700  Level New York TRACON
11:28PM 41.1585 -74.0952 74° East  Level FlightAware Approximate
11:28PM 40.6500 -74.3333 349° North 282 325 6,000  Level New York TRACON
11:29PM 41.1833 -73.9673 90° East  Level FlightAware Approximate
11:29PM 40.7333 -74.3000 17° North 271 312 6,000  Level New York TRACON
11:30PM 40.8000 -74.2667 21° North 286 329 6,000  Level New York TRACON
11:31PM 40.8500 -74.1833 52° Northeast 300 345 6,000 420 Level New York TRACON
11:32PM 40.9167 -74.1167 37° Northeast 285 328 6,900 900 Climbing New York TRACON
11:33PM 40.9667 -74.0333 52° Northeast 289 333 7,800 1,140 Climbing New York TRACON
11:34PM 41.0167 -73.9500 51° Northeast 300 345 9,200 1,320 Climbing New York TRACON
11:35PM 41.0667 -73.8833 45° Northeast 301 346 10,400 960 Climbing New York TRACON
11:36PM 41.1333 -73.8000 43° Northeast 320 368 11,100 900 Climbing New York TRACON
11:37PM 41.2000 -73.7167 43° Northeast 324 373 12,300 900 Climbing New York TRACON
11:38PM 41.2667 -73.6167 48° Northeast 330 380 13,000 360 Climbing New York TRACON
11:39PM 41.3333 -73.5167 48° Northeast 358 412 13,100 780 Climbing New York TRACON
11:40PM 41.4042 -73.4253 44° Northeast 378 435 14,700 1,320 Climbing Boston Center
11:41PM 41.4569 -73.3458 48° Northeast 336 387 15,900 600 Climbing Boston Center
11:42PM 41.5264 -73.2581 43° Northeast 327 376 16,000 840 Climbing Boston Center
11:43PM 41.6000 -73.1592 45° Northeast 327 376 17,600 1,440 Climbing Boston Center
11:44PM 41.6628 -73.1125 29° Northeast 306 352 18,900 1,200 Climbing Boston Center
11:45PM 41.7481 -73.1244 354° North 270 311 20,000 1,020 Climbing Boston Center
11:46PM 41.8272 -73.1450 349° North 270 311 21,000 960 Climbing Boston Center
11:47PM 41.9064 -73.1569 354° North 280 322 22,000 900 Climbing Boston Center
11:48PM 41.9853 -73.1692 353° North 280 322 22,800 780 Climbing Boston Center
11:49PM 42.0625 -73.1839 352° North 280 322 23,600 780 Climbing Boston Center
11:50PM 42.1417 -73.1961 353° North 280 322 24,400 660 Climbing Boston Center
11:51PM 42.2206 -73.2111 352° North 280 322 25,000 300 Climbing Boston Center
11:52PM 42.3039 -73.2261 352° North 287 330 25,000  Level Boston Center
11:53PM 42.3894 -73.2300 358° North 307 353 25,000  Level Boston Center
11:54PM 42.4808 -73.2481 352° North 324 373 25,000  Level Boston Center
11:55PM 42.5725 -73.2661 352° North 334 384 25,000  Level Boston Center
11:56PM 42.6786 -73.2931 349° North 339 390 25,000  Level Boston Center
11:57PM 42.7764 -73.3086 353° North 344 396 25,000  Level Boston Center
11:58PM 42.8742 -73.3269 352° North 349 402 25,000 -120 Level Boston Center
11:59PM 42.9742 -73.3425 354° North 354 407 24,800 -480 Descending Boston Center
12:00AM 43.0972 -73.3358 North 354 407 24,000 -420 Descending Boston Center
12:01AM 43.2036 -73.3231 North 366 421 24,000 -600 Level Boston Center
12:02AM 43.3058 -73.3103 North 366 421 22,800 -1,200 Descending Boston Center
12:03AM 43.4081 -73.2975 North 366 421 21,700 -1,200 Descending Boston Center
12:04AM 43.5100 -73.2875 North 361 415 20,500 -1,260 Descending Boston Center
12:05AM 43.6103 -73.2744 North 361 415 19,200 -1,800 Descending Boston Center
12:06AM 43.7167 -73.2617 North 371 427 17,000 -2,100 Descending Boston Center
12:07AM 43.8189 -73.2486 North 371 427 15,000 -2,040 Descending Boston Center
12:08AM 43.9128 -73.2383 North 358 412 13,000 -2,100 Descending Boston Center
12:09AM 44.0003 -73.2281 North 331 381 10,900 -1,980 Descending Boston Center
12:10AM 44.0817 -73.2233 North 308 354 9,100 -1,800 Descending Boston Center
12:11AM 44.1586 -73.2097 North 286 329 7,400 -1,860 Descending Boston Center
12:12AM 44.2317 -73.2022 North 271 312 5,400 -1,500 Descending Boston Center
12:13AM 44.2983 -73.1942 North 256 295 4,500 -1,140 Descending Boston Center
12:14AM 44.3547 -73.2036 353° North 221 254 3,200 -1,140 Descending Boston Center
12:15AM 44.4192 -73.2219 349° North 221 254 2,300 -480 Descending Boston Center
12:16AM 44.4689 -73.2517 337° Northwest 215 247 2,300 -300 Level Boston Center
12:17AM 44.5189 -73.2522 360° North 192 221 1,800 -660 Descending Boston Center
12:18AM 44.5025 -73.1997 114° Southeast 72 83 1,000 -720 Descending Boston Center
12:20AM 44.4778 -73.1617 132° Southeast 78 90 300 -300 Descending Boston Center
12:21AM 44.4675 -73.1528 148° Southeast 74 85 400 60 Climbing Boston Center